sensor_id;sensor_type;location;lat;lon;timestamp;pressure;altitude;pressure_sealevel;temperature;humidity
28079;BME280;15388;42.238;24.684;2022-11-06T00:00:19;99164.47;;;10.42;100.00
28079;BME280;15388;42.238;24.684;2022-11-06T00:02:44;99156.22;;;10.45;100.00
28079;BME280;15388;42.238;24.684;2022-11-06T00:05:10;99157.47;;;10.51;100.00
28079;BME280;15388;42.238;24.684;2022-11-06T00:07:54;99152.53;;;10.56;100.00
28079;BME280;15388;42.238;24.684;2022-11-06T00:10:19;99144.69;;;10.54;100.00
28079;BME280;15388;42.238;24.684;2022-11-06T00:12:45;99143.44;;;10.49;100.00
28079;BME280;15388;42.238;24.684;2022-11-06T00:15:10;99137.59;;;10.45;100.00
28079;BME280;15388;42.238;24.684;2022-11-06T00:17:35;99143.03;;;10.43;100.00
28079;BME280;15388;42.238;24.684;2022-11-06T00:20:01;99149.06;;;10.45;100.00
28079;BME280;15388;42.238;24.684;2022-11-06T00:22:26;99138.75;;;10.23;100.00
28079;BME280;15388;42.238;24.684;2022-11-06T00:24:52;99135.44;;;10.01;100.00
28079;BME280;15388;42.238;24.684;2022-11-06T00:27:17;99148.28;;;10.15;100.00
28079;BME280;15388;42.238;24.684;2022-11-06T00:29:42;99145.75;;;10.24;100.00
28079;BME280;15388;42.238;24.684;2022-11-06T00:32:08;99139.47;;;10.25;100.00
28079;BME280;15388;42.238;24.684;2022-11-06T00:34:33;99140.16;;;10.17;100.00
28079;BME280;15388;42.238;24.684;2022-11-06T00:36:58;99144.63;;;10.26;100.00
28079;BME280;15388;42.238;24.684;2022-11-06T00:39:24;99147.97;;;10.28;100.00
28079;BME280;15388;42.238;24.684;2022-11-06T00:41:49;99143.25;;;10.12;100.00
28079;BME280;15388;42.238;24.684;2022-11-06T00:44:14;99141.41;;;10.23;100.00
28079;BME280;15388;42.238;24.684;2022-11-06T00:46:39;99144.31;;;10.29;100.00
28079;BME280;15388;42.238;24.684;2022-11-06T00:49:05;99142.94;;;10.35;100.00
28079;BME280;15388;42.238;24.684;2022-11-06T00:51:31;99136.47;;;10.38;100.00
28079;BME280;15388;42.238;24.684;2022-11-06T00:54:00;99139.03;;;10.19;100.00
28079;BME280;15388;42.238;24.684;2022-11-06T00:56:26;99142.81;;;10.17;100.00
28079;BME280;15388;42.238;24.684;2022-11-06T00:58:52;99150.53;;;10.20;100.00
28079;BME280;15388;42.238;24.684;2022-11-06T01:03:43;99144.50;;;10.28;100.00
28079;BME280;15388;42.238;24.684;2022-11-06T01:06:13;99144.25;;;10.11;100.00
28079;BME280;15388;42.238;24.684;2022-11-06T01:08:39;99142.72;;;9.99;100.00
28079;BME280;15388;42.238;24.684;2022-11-06T01:11:09;99145.09;;;10.02;100.00
28079;BME280;15388;42.238;24.684;2022-11-06T01:13:35;99146.19;;;10.09;100.00
28079;BME280;15388;42.238;24.684;2022-11-06T01:16:00;99145.78;;;10.14;100.00
28079;BME280;15388;42.238;24.684;2022-11-06T01:18:28;99151.50;;;10.19;100.00
28079;BME280;15388;42.238;24.684;2022-11-06T01:20:53;99153.44;;;10.27;100.00
28079;BME280;15388;42.238;24.684;2022-11-06T01:23:18;99155.56;;;10.23;100.00
28079;BME280;15388;42.238;24.684;2022-11-06T01:25:53;99152.75;;;10.25;100.00
28079;BME280;15388;42.238;24.684;2022-11-06T01:28:19;99157.09;;;10.26;100.00
28079;BME280;15388;42.238;24.684;2022-11-06T01:30:45;99160.72;;;10.25;100.00
28079;BME280;15388;42.238;24.684;2022-11-06T01:33:10;99152.91;;;10.23;100.00
28079;BME280;15388;42.238;24.684;2022-11-06T01:35:35;99153.03;;;10.22;100.00
28079;BME280;15388;42.238;24.684;2022-11-06T01:38:00;99146.19;;;10.09;100.00
28079;BME280;15388;42.238;24.684;2022-11-06T01:40:26;99161.19;;;9.90;100.00
28079;BME280;15388;42.238;24.684;2022-11-06T01:42:51;99160.91;;;9.93;100.00
28079;BME280;15388;42.238;24.684;2022-11-06T01:45:24;99156.72;;;9.91;100.00
28079;BME280;15388;42.238;24.684;2022-11-06T01:47:50;99152.94;;;9.93;100.00
28079;BME280;15388;42.238;24.684;2022-11-06T01:50:15;99146.06;;;10.01;100.00
28079;BME280;15388;42.238;24.684;2022-11-06T01:52:41;99151.78;;;10.06;100.00
28079;BME280;15388;42.238;24.684;2022-11-06T01:55:09;99152.22;;;10.11;100.00
28079;BME280;15388;42.238;24.684;2022-11-06T01:57:36;99154.16;;;10.19;100.00
28079;BME280;15388;42.238;24.684;2022-11-06T02:00:02;99149.94;;;10.16;100.00
28079;BME280;15388;42.238;24.684;2022-11-06T02:02:28;99151.38;;;10.21;100.00
28079;BME280;15388;42.238;24.684;2022-11-06T02:04:53;99149.09;;;10.26;100.00
28079;BME280;15388;42.238;24.684;2022-11-06T02:07:18;99148.81;;;10.29;100.00
28079;BME280;15388;42.238;24.684;2022-11-06T02:09:44;99150.91;;;10.35;100.00
28079;BME280;15388;42.238;24.684;2022-11-06T02:15:00;99142.63;;;10.48;100.00
28079;BME280;15388;42.238;24.684;2022-11-06T02:20:15;99130.16;;;10.49;100.00
28079;BME280;15388;42.238;24.684;2022-11-06T02:27:58;99135.56;;;10.67;100.00
28079;BME280;15388;42.238;24.684;2022-11-06T02:30:27;99146.16;;;10.77;100.00
28079;BME280;15388;42.238;24.684;2022-11-06T02:32:55;99147.81;;;10.78;100.00
28079;BME280;15388;42.238;24.684;2022-11-06T02:35:24;99150.31;;;10.79;100.00
28079;BME280;15388;42.238;24.684;2022-11-06T02:37:51;99146.94;;;10.87;100.00
28079;BME280;15388;42.238;24.684;2022-11-06T02:40:19;99146.66;;;10.90;100.00
28079;BME280;15388;42.238;24.684;2022-11-06T02:42:46;99134.56;;;10.96;100.00
28079;BME280;15388;42.238;24.684;2022-11-06T02:45:13;99143.53;;;10.95;100.00
28079;BME280;15388;42.238;24.684;2022-11-06T02:47:41;99141.56;;;10.97;100.00
28079;BME280;15388;42.238;24.684;2022-11-06T02:50:29;99140.69;;;10.96;100.00
28079;BME280;15388;42.238;24.684;2022-11-06T02:52:56;99143.38;;;10.96;100.00
28079;BME280;15388;42.238;24.684;2022-11-06T02:55:28;99143.22;;;10.98;100.00
28079;BME280;15388;42.238;24.684;2022-11-06T02:57:56;99138.75;;;10.99;100.00
28079;BME280;15388;42.238;24.684;2022-11-06T03:00:25;99146.13;;;11.05;100.00
28079;BME280;15388;42.238;24.684;2022-11-06T03:03:03;99146.81;;;11.07;100.00
28079;BME280;15388;42.238;24.684;2022-11-06T03:05:37;99150.75;;;11.03;100.00
28079;BME280;15388;42.238;24.684;2022-11-06T03:10:43;99162.78;;;11.07;100.00
28079;BME280;15388;42.238;24.684;2022-11-06T03:13:17;99159.16;;;11.08;100.00
28079;BME280;15388;42.238;24.684;2022-11-06T03:18:11;99165.16;;;11.10;100.00
28079;BME280;15388;42.238;24.684;2022-11-06T03:25:38;99159.25;;;10.88;100.00
28079;BME280;15388;42.238;24.684;2022-11-06T03:30:31;99159.03;;;10.24;100.00
28079;BME280;15388;42.238;24.684;2022-11-06T03:33:07;99159.69;;;9.78;100.00
28079;BME280;15388;42.238;24.684;2022-11-06T03:35:39;99151.66;;;9.18;100.00
28079;BME280;15388;42.238;24.684;2022-11-06T03:38:09;99143.28;;;9.33;100.00
28079;BME280;15388;42.238;24.684;2022-11-06T03:40:38;99152.97;;;9.34;100.00
28079;BME280;15388;42.238;24.684;2022-11-06T03:43:06;99152.69;;;9.47;100.00
28079;BME280;15388;42.238;24.684;2022-11-06T03:45:33;99159.94;;;9.55;100.00
28079;BME280;15388;42.238;24.684;2022-11-06T03:48:09;99159.84;;;9.66;100.00
28079;BME280;15388;42.238;24.684;2022-11-06T03:50:44;99167.94;;;9.75;100.00
28079;BME280;15388;42.238;24.684;2022-11-06T03:53:16;99179.53;;;9.84;100.00
28079;BME280;15388;42.238;24.684;2022-11-06T03:55:50;99166.50;;;9.90;100.00
28079;BME280;15388;42.238;24.684;2022-11-06T03:58:18;99154.50;;;9.86;100.00
28079;BME280;15388;42.238;24.684;2022-11-06T04:00:45;99158.25;;;9.93;100.00
28079;BME280;15388;42.238;24.684;2022-11-06T04:03:20;99147.75;;;10.02;100.00
28079;BME280;15388;42.238;24.684;2022-11-06T04:05:49;99155.72;;;10.12;100.00
28079;BME280;15388;42.238;24.684;2022-11-06T04:08:16;99155.00;;;10.19;100.00
28079;BME280;15388;42.238;24.684;2022-11-06T04:11:00;99159.59;;;10.27;100.00
28079;BME280;15388;42.238;24.684;2022-11-06T04:13:46;99169.53;;;10.35;100.00
28079;BME280;15388;42.238;24.684;2022-11-06T04:16:29;99169.63;;;10.43;100.00
28079;BME280;15388;42.238;24.684;2022-11-06T04:18:56;99181.25;;;10.52;100.00
28079;BME280;15388;42.238;24.684;2022-11-06T04:37:24;99163.75;;;10.88;100.00
28079;BME280;15388;42.238;24.684;2022-11-06T04:39:59;99166.25;;;10.89;100.00
28079;BME280;15388;42.238;24.684;2022-11-06T04:44:54;99162.31;;;10.93;100.00
28079;BME280;15388;42.238;24.684;2022-11-06T04:47:22;99154.78;;;10.89;100.00
28079;BME280;15388;42.238;24.684;2022-11-06T04:49:48;99155.31;;;10.92;100.00
28079;BME280;15388;42.238;24.684;2022-11-06T04:52:16;99164.00;;;10.94;100.00
28079;BME280;15388;42.238;24.684;2022-11-06T04:54:42;99165.06;;;11.02;100.00
28079;BME280;15388;42.238;24.684;2022-11-06T04:57:09;99171.41;;;11.01;100.00
28079;BME280;15388;42.238;24.684;2022-11-06T04:59:34;99168.13;;;11.07;100.00
28079;BME280;15388;42.238;24.684;2022-11-06T05:02:00;99169.50;;;11.11;100.00
28079;BME280;15388;42.238;24.684;2022-11-06T05:04:25;99179.69;;;11.16;100.00
28079;BME280;15388;42.238;24.684;2022-11-06T05:06:51;99180.63;;;11.25;100.00
28079;BME280;15388;42.238;24.684;2022-11-06T05:09:16;99178.25;;;11.21;100.00
28079;BME280;15388;42.238;24.684;2022-11-06T05:11:41;99170.97;;;11.24;100.00
28079;BME280;15388;42.238;24.684;2022-11-06T05:14:07;99169.16;;;11.24;100.00
28079;BME280;15388;42.238;24.684;2022-11-06T05:16:32;99162.38;;;11.30;100.00
28079;BME280;15388;42.238;24.684;2022-11-06T05:18:57;99178.06;;;11.33;100.00
28079;BME280;15388;42.238;24.684;2022-11-06T05:21:22;99171.59;;;11.36;100.00
28079;BME280;15388;42.238;24.684;2022-11-06T05:24:06;99189.94;;;11.39;100.00
28079;BME280;15388;42.238;24.684;2022-11-06T05:26:31;99196.09;;;11.39;100.00
28079;BME280;15388;42.238;24.684;2022-11-06T05:28:57;99185.84;;;11.44;100.00
28079;BME280;15388;42.238;24.684;2022-11-06T05:31:22;99199.97;;;11.45;100.00
28079;BME280;15388;42.238;24.684;2022-11-06T05:33:48;99204.09;;;11.39;100.00
28079;BME280;15388;42.238;24.684;2022-11-06T05:36:13;99209.41;;;11.39;100.00
28079;BME280;15388;42.238;24.684;2022-11-06T05:38:39;99206.47;;;11.42;100.00
28079;BME280;15388;42.238;24.684;2022-11-06T05:41:04;99208.13;;;11.43;100.00
28079;BME280;15388;42.238;24.684;2022-11-06T05:43:29;99206.88;;;11.48;100.00
28079;BME280;15388;42.238;24.684;2022-11-06T05:45:55;99197.88;;;11.49;100.00
28079;BME280;15388;42.238;24.684;2022-11-06T05:48:20;99202.91;;;11.52;100.00
28079;BME280;15388;42.238;24.684;2022-11-06T05:50:45;99202.75;;;11.53;100.00
28079;BME280;15388;42.238;24.684;2022-11-06T05:53:11;99211.88;;;11.51;100.00
28079;BME280;15388;42.238;24.684;2022-11-06T05:55:36;99211.19;;;11.49;100.00
28079;BME280;15388;42.238;24.684;2022-11-06T05:58:01;99222.78;;;11.57;100.00
28079;BME280;15388;42.238;24.684;2022-11-06T06:00:26;99216.81;;;11.64;100.00
28079;BME280;15388;42.238;24.684;2022-11-06T06:02:52;99219.03;;;11.68;100.00
28079;BME280;15388;42.238;24.684;2022-11-06T06:05:17;99227.13;;;11.77;100.00
28079;BME280;15388;42.238;24.684;2022-11-06T06:07:42;99239.47;;;11.78;100.00
28079;BME280;15388;42.238;24.684;2022-11-06T06:10:08;99239.16;;;11.81;100.00
28079;BME280;15388;42.238;24.684;2022-11-06T06:12:33;99257.59;;;11.92;100.00
28079;BME280;15388;42.238;24.684;2022-11-06T06:14:59;99259.56;;;11.90;100.00
28079;BME280;15388;42.238;24.684;2022-11-06T06:17:24;99265.53;;;11.84;100.00
28079;BME280;15388;42.238;24.684;2022-11-06T06:19:50;99267.50;;;11.82;100.00
28079;BME280;15388;42.238;24.684;2022-11-06T06:22:15;99278.75;;;11.76;100.00
28079;BME280;15388;42.238;24.684;2022-11-06T06:24:40;99283.25;;;11.75;100.00
28079;BME280;15388;42.238;24.684;2022-11-06T06:27:05;99283.78;;;11.79;100.00
28079;BME280;15388;42.238;24.684;2022-11-06T06:29:31;99286.16;;;11.82;100.00
28079;BME280;15388;42.238;24.684;2022-11-06T06:31:56;99283.34;;;11.83;100.00
28079;BME280;15388;42.238;24.684;2022-11-06T06:34:22;99284.03;;;11.85;100.00
28079;BME280;15388;42.238;24.684;2022-11-06T06:36:47;99291.56;;;11.90;100.00
28079;BME280;15388;42.238;24.684;2022-11-06T06:39:13;99288.44;;;11.95;100.00
28079;BME280;15388;42.238;24.684;2022-11-06T06:41:38;99282.50;;;12.01;100.00
28079;BME280;15388;42.238;24.684;2022-11-06T06:44:03;99286.69;;;12.04;100.00
28079;BME280;15388;42.238;24.684;2022-11-06T06:46:28;99293.13;;;12.11;100.00
28079;BME280;15388;42.238;24.684;2022-11-06T06:48:54;99298.81;;;12.16;100.00
28079;BME280;15388;42.238;24.684;2022-11-06T06:51:19;99298.69;;;12.18;100.00
28079;BME280;15388;42.238;24.684;2022-11-06T06:53:44;99309.91;;;12.21;100.00
28079;BME280;15388;42.238;24.684;2022-11-06T06:56:09;99310.97;;;12.29;100.00
28079;BME280;15388;42.238;24.684;2022-11-06T06:58:35;99312.63;;;12.30;100.00
28079;BME280;15388;42.238;24.684;2022-11-06T07:01:01;99312.31;;;12.33;100.00
28079;BME280;15388;42.238;24.684;2022-11-06T07:03:26;99310.06;;;12.38;100.00
28079;BME280;15388;42.238;24.684;2022-11-06T07:05:52;99318.13;;;12.46;100.00
28079;BME280;15388;42.238;24.684;2022-11-06T07:08:17;99308.50;;;12.54;100.00
28079;BME280;15388;42.238;24.684;2022-11-06T07:10:42;99322.91;;;12.61;100.00
28079;BME280;15388;42.238;24.684;2022-11-06T07:13:08;99329.75;;;12.64;100.00
28079;BME280;15388;42.238;24.684;2022-11-06T07:15:33;99338.31;;;12.67;100.00
28079;BME280;15388;42.238;24.684;2022-11-06T07:18:02;99325.25;;;12.64;100.00
28079;BME280;15388;42.238;24.684;2022-11-06T07:20:27;99338.31;;;12.67;100.00
28079;BME280;15388;42.238;24.684;2022-11-06T07:22:53;99344.09;;;12.63;100.00
28079;BME280;15388;42.238;24.684;2022-11-06T07:25:18;99344.88;;;12.55;100.00
28079;BME280;15388;42.238;24.684;2022-11-06T07:27:43;99330.91;;;12.61;100.00
28079;BME280;15388;42.238;24.684;2022-11-06T07:30:09;99318.06;;;12.38;100.00
28079;BME280;15388;42.238;24.684;2022-11-06T07:32:34;99332.22;;;12.39;100.00
28079;BME280;15388;42.238;24.684;2022-11-06T07:34:59;99340.63;;;12.44;100.00
28079;BME280;15388;42.238;24.684;2022-11-06T07:37:25;99334.66;;;12.50;100.00
28079;BME280;15388;42.238;24.684;2022-11-06T07:39:50;99330.47;;;12.47;100.00
28079;BME280;15388;42.238;24.684;2022-11-06T07:42:15;99330.84;;;12.53;100.00
28079;BME280;15388;42.238;24.684;2022-11-06T07:44:40;99333.19;;;12.56;100.00
28079;BME280;15388;42.238;24.684;2022-11-06T07:47:06;99337.59;;;12.65;100.00
28079;BME280;15388;42.238;24.684;2022-11-06T07:49:31;99340.63;;;12.70;100.00
28079;BME280;15388;42.238;24.684;2022-11-06T07:51:56;99335.72;;;12.84;100.00
28079;BME280;15388;42.238;24.684;2022-11-06T07:54:21;99335.31;;;12.97;100.00
28079;BME280;15388;42.238;24.684;2022-11-06T07:56:47;99331.88;;;13.05;100.00
28079;BME280;15388;42.238;24.684;2022-11-06T07:59:12;99343.22;;;13.07;100.00
28079;BME280;15388;42.238;24.684;2022-11-06T08:01:37;99345.25;;;13.13;100.00
28079;BME280;15388;42.238;24.684;2022-11-06T08:04:02;99348.16;;;13.20;100.00
28079;BME280;15388;42.238;24.684;2022-11-06T08:06:28;99348.66;;;13.23;100.00
28079;BME280;15388;42.238;24.684;2022-11-06T08:08:53;99353.09;;;13.41;100.00
28079;BME280;15388;42.238;24.684;2022-11-06T08:11:18;99361.19;;;13.49;100.00
28079;BME280;15388;42.238;24.684;2022-11-06T08:13:43;99363.91;;;13.58;100.00
28079;BME280;15388;42.238;24.684;2022-11-06T08:16:10;99365.56;;;13.59;100.00
28079;BME280;15388;42.238;24.684;2022-11-06T08:18:35;99374.53;;;13.49;100.00
28079;BME280;15388;42.238;24.684;2022-11-06T08:21:01;99378.56;;;13.54;100.00
28079;BME280;15388;42.238;24.684;2022-11-06T08:23:26;99378.34;;;13.47;100.00
28079;BME280;15388;42.238;24.684;2022-11-06T08:25:55;99383.53;;;13.48;100.00
28079;BME280;15388;42.238;24.684;2022-11-06T08:28:21;99384.13;;;13.34;100.00
28079;BME280;15388;42.238;24.684;2022-11-06T08:30:48;99390.50;;;13.41;100.00
28079;BME280;15388;42.238;24.684;2022-11-06T08:33:13;99388.16;;;13.38;100.00
28079;BME280;15388;42.238;24.684;2022-11-06T08:35:39;99396.72;;;13.42;100.00
28079;BME280;15388;42.238;24.684;2022-11-06T08:38:04;99398.06;;;13.46;100.00
28079;BME280;15388;42.238;24.684;2022-11-06T08:40:29;99388.84;;;13.40;100.00
28079;BME280;15388;42.238;24.684;2022-11-06T08:43:01;99400.47;;;13.31;100.00
28079;BME280;15388;42.238;24.684;2022-11-06T08:45:28;99411.47;;;13.28;100.00
28079;BME280;15388;42.238;24.684;2022-11-06T08:47:53;99416.19;;;13.34;100.00
28079;BME280;15388;42.238;24.684;2022-11-06T08:50:18;99419.56;;;13.36;100.00
28079;BME280;15388;42.238;24.684;2022-11-06T08:52:43;99422.91;;;13.38;100.00
28079;BME280;15388;42.238;24.684;2022-11-06T08:55:09;99421.97;;;13.47;100.00
28079;BME280;15388;42.238;24.684;2022-11-06T08:57:34;99416.00;;;13.54;100.00
28079;BME280;15388;42.238;24.684;2022-11-06T08:59:59;99417.03;;;13.61;100.00
28079;BME280;15388;42.238;24.684;2022-11-06T09:02:25;99419.44;;;13.72;100.00
28079;BME280;15388;42.238;24.684;2022-11-06T09:04:50;99423.19;;;13.88;100.00
28079;BME280;15388;42.238;24.684;2022-11-06T09:07:15;99426.56;;;13.98;100.00
28079;BME280;15388;42.238;24.684;2022-11-06T09:09:41;99430.94;;;14.08;100.00
28079;BME280;15388;42.238;24.684;2022-11-06T09:12:06;99415.25;;;14.13;100.00
28079;BME280;15388;42.238;24.684;2022-11-06T09:14:32;99425.47;;;14.26;100.00
28079;BME280;15388;42.238;24.684;2022-11-06T09:16:57;99429.84;;;14.35;100.00
28079;BME280;15388;42.238;24.684;2022-11-06T09:19:24;99410.44;;;14.42;100.00
28079;BME280;15388;42.238;24.684;2022-11-06T09:21:49;99399.09;;;14.39;100.00
28079;BME280;15388;42.238;24.684;2022-11-06T09:24:14;99414.97;;;14.49;100.00
28079;BME280;15388;42.238;24.684;2022-11-06T09:26:40;99408.63;;;14.59;100.00
28079;BME280;15388;42.238;24.684;2022-11-06T09:29:05;99398.09;;;14.65;100.00
28079;BME280;15388;42.238;24.684;2022-11-06T09:31:30;99406.97;;;14.74;100.00
28079;BME280;15388;42.238;24.684;2022-11-06T09:33:56;99419.53;;;14.82;100.00
28079;BME280;15388;42.238;24.684;2022-11-06T09:36:22;99407.31;;;14.88;100.00
28079;BME280;15388;42.238;24.684;2022-11-06T09:38:47;99387.56;;;14.89;100.00
28079;BME280;15388;42.238;24.684;2022-11-06T09:41:36;99387.56;;;14.89;100.00
28079;BME280;15388;42.238;24.684;2022-11-06T09:44:02;99376.16;;;14.95;100.00
28079;BME280;15388;42.238;24.684;2022-11-06T09:46:43;99344.53;;;14.82;100.00
28079;BME280;15388;42.238;24.684;2022-11-06T09:49:19;99358.63;;;14.84;100.00
28079;BME280;15388;42.238;24.684;2022-11-06T09:54:26;99375.16;;;15.05;100.00
28079;BME280;15388;42.238;24.684;2022-11-06T09:56:54;99366.09;;;15.14;100.00
28079;BME280;15388;42.238;24.684;2022-11-06T09:59:19;99352.69;;;15.22;100.00
28079;BME280;15388;42.238;24.684;2022-11-06T10:01:49;99358.69;;;15.24;100.00
28079;BME280;15388;42.238;24.684;2022-11-06T10:06:50;99350.94;;;15.46;100.00
28079;BME280;15388;42.238;24.684;2022-11-06T10:09:16;99360.63;;;15.56;100.00
28079;BME280;15388;42.238;24.684;2022-11-06T10:11:49;99371.13;;;15.65;100.00
28079;BME280;15388;42.238;24.684;2022-11-06T10:17:12;99379.97;;;15.74;100.00
28079;BME280;15388;42.238;24.684;2022-11-06T10:19:48;99376.91;;;15.86;100.00
28079;BME280;15388;42.238;24.684;2022-11-06T10:22:21;99376.03;;;15.94;100.00
28079;BME280;15388;42.238;24.684;2022-11-06T10:27:45;99388.03;;;15.74;100.00
28079;BME280;15388;42.238;24.684;2022-11-06T10:30:10;99391.13;;;15.54;100.00
28079;BME280;15388;42.238;24.684;2022-11-06T10:32:44;99387.47;;;15.39;100.00
28079;BME280;15388;42.238;24.684;2022-11-06T10:37:53;99372.16;;;14.99;100.00
28079;BME280;15388;42.238;24.684;2022-11-06T10:40:23;99372.00;;;14.93;100.00
28079;BME280;15388;42.238;24.684;2022-11-06T10:45:24;99372.97;;;14.67;100.00
28079;BME280;15388;42.238;24.684;2022-11-06T10:47:53;99374.50;;;14.61;100.00
28079;BME280;15388;42.238;24.684;2022-11-06T10:50:19;99369.78;;;14.55;100.00
28079;BME280;15388;42.238;24.684;2022-11-06T10:52:47;99371.63;;;14.46;100.00
28079;BME280;15388;42.238;24.684;2022-11-06T10:58:02;99366.44;;;14.36;100.00
28079;BME280;15388;42.238;24.684;2022-11-06T11:00:29;99367.41;;;14.26;100.00
28079;BME280;15388;42.238;24.684;2022-11-06T11:02:56;99359.38;;;14.26;100.00
28079;BME280;15388;42.238;24.684;2022-11-06T11:05:22;99354.06;;;14.35;100.00
28079;BME280;15388;42.238;24.684;2022-11-06T11:07:48;99358.25;;;14.37;100.00
28079;BME280;15388;42.238;24.684;2022-11-06T11:10:28;99362.06;;;14.26;100.00
28079;BME280;15388;42.238;24.684;2022-11-06T11:12:58;99361.41;;;14.33;100.00
28079;BME280;15388;42.238;24.684;2022-11-06T11:15:46;99362.09;;;14.43;100.00
28079;BME280;15388;42.238;24.684;2022-11-06T11:20:42;99355.41;;;14.39;100.00
28079;BME280;15388;42.238;24.684;2022-11-06T11:23:21;99350.38;;;14.36;100.00
28079;BME280;15388;42.238;24.684;2022-11-06T11:25:52;99354.06;;;14.35;100.00
28079;BME280;15388;42.238;24.684;2022-11-06T11:28:31;99352.06;;;14.45;100.00
28079;BME280;15388;42.238;24.684;2022-11-06T11:33:49;99347.53;;;14.71;100.00
28079;BME280;15388;42.238;24.684;2022-11-06T11:36:16;99345.72;;;14.63;100.00
28079;BME280;15388;42.238;24.684;2022-11-06T11:38:41;99340.69;;;14.68;100.00
28079;BME280;15388;42.238;24.684;2022-11-06T11:41:08;99340.19;;;14.73;100.00
28079;BME280;15388;42.238;24.684;2022-11-06T11:43:35;99332.47;;;14.86;100.00
28079;BME280;15388;42.238;24.684;2022-11-06T11:51:10;99345.66;;;15.13;100.00
28079;BME280;15388;42.238;24.684;2022-11-06T11:53:36;99336.97;;;15.11;100.00
28079;BME280;15388;42.238;24.684;2022-11-06T11:56:02;99344.00;;;15.12;100.00
28079;BME280;15388;42.238;24.684;2022-11-06T11:58:28;99343.97;;;15.20;100.00
28079;BME280;15388;42.238;24.684;2022-11-06T12:00:56;99341.16;;;15.13;100.00
28079;BME280;15388;42.238;24.684;2022-11-06T12:03:22;99340.28;;;15.13;100.00
28079;BME280;15388;42.238;24.684;2022-11-06T12:05:49;99339.28;;;15.22;100.00
28079;BME280;15388;42.238;24.684;2022-11-06T12:08:23;99339.91;;;15.33;100.00
28079;BME280;15388;42.238;24.684;2022-11-06T12:10:49;99333.16;;;15.45;100.00
28079;BME280;15388;42.238;24.684;2022-11-06T12:13:15;99336.66;;;15.54;100.00
28079;BME280;15388;42.238;24.684;2022-11-06T12:15:44;99338.19;;;15.48;100.00
28079;BME280;15388;42.238;24.684;2022-11-06T12:18:13;99338.69;;;15.52;100.00
28079;BME280;15388;42.238;24.684;2022-11-06T12:20:41;99343.84;;;15.62;100.00
28079;BME280;15388;42.238;24.684;2022-11-06T12:23:10;99343.47;;;15.65;100.00
28079;BME280;15388;42.238;24.684;2022-11-06T12:25:39;99345.50;;;15.63;100.00
28079;BME280;15388;42.238;24.684;2022-11-06T12:28:09;99358.94;;;15.54;100.00
28079;BME280;15388;42.238;24.684;2022-11-06T12:30:37;99353.25;;;15.58;100.00
28079;BME280;15388;42.238;24.684;2022-11-06T12:35:39;99345.63;;;15.30;100.00
28079;BME280;15388;42.238;24.684;2022-11-06T12:40:37;99333.50;;;15.42;100.00
28079;BME280;15388;42.238;24.684;2022-11-06T12:51:16;99327.31;;;15.41;100.00
28079;BME280;15388;42.238;24.684;2022-11-06T12:59:02;99334.53;;;15.41;100.00
28079;BME280;15388;42.238;24.684;2022-11-06T13:01:40;99332.84;;;15.40;100.00
28079;BME280;15388;42.238;24.684;2022-11-06T13:04:20;99329.50;;;15.38;100.00
28079;BME280;15388;42.238;24.684;2022-11-06T13:09:34;99328.84;;;15.36;100.00
28079;BME280;15388;42.238;24.684;2022-11-06T13:12:10;99316.44;;;15.35;100.00
28079;BME280;15388;42.238;24.684;2022-11-06T13:14:40;99321.28;;;15.39;100.00
28079;BME280;15388;42.238;24.684;2022-11-06T13:22:18;99331.91;;;15.16;100.00
28079;BME280;15388;42.238;24.684;2022-11-06T13:24:46;99336.94;;;15.19;100.00
28079;BME280;15388;42.238;24.684;2022-11-06T13:29:39;99334.13;;;15.12;100.00
28079;BME280;15388;42.238;24.684;2022-11-06T13:32:08;99332.09;;;15.14;100.00
28079;BME280;15388;42.238;24.684;2022-11-06T13:34:37;99331.09;;;15.15;100.00
28079;BME280;15388;42.238;24.684;2022-11-06T13:37:11;99329.91;;;15.10;100.00
28079;BME280;15388;42.238;24.684;2022-11-06T13:39:43;99337.78;;;15.11;100.00
28079;BME280;15388;42.238;24.684;2022-11-06T13:42:18;99340.16;;;15.06;100.00
28079;BME280;15388;42.238;24.684;2022-11-06T13:44:44;99334.50;;;15.01;100.00
28079;BME280;15388;42.238;24.684;2022-11-06T13:50:05;99341.69;;;15.00;100.00
28079;BME280;15388;42.238;24.684;2022-11-06T14:07:48;99337.63;;;15.21;100.00
28079;BME280;15388;42.238;24.684;2022-11-06T14:10:19;99326.19;;;15.27;100.00
28079;BME280;15388;42.238;24.684;2022-11-06T14:12:45;99330.38;;;15.30;100.00
28079;BME280;15388;42.238;24.684;2022-11-06T14:15:14;99336.25;;;15.25;100.00
28079;BME280;15388;42.238;24.684;2022-11-06T14:17:41;99328.56;;;15.22;100.00
28079;BME280;15388;42.238;24.684;2022-11-06T14:22:54;99332.91;;;15.23;100.00
28079;BME280;15388;42.238;24.684;2022-11-06T14:30:38;99332.09;;;15.14;100.00
28079;BME280;15388;42.238;24.684;2022-11-06T14:33:01;99328.44;;;14.99;100.00
28079;BME280;15388;42.238;24.684;2022-11-06T14:37:53;99325.28;;;14.87;100.00
28079;BME280;15388;42.238;24.684;2022-11-06T14:40:34;99327.13;;;14.78;100.00
28079;BME280;15388;42.238;24.684;2022-11-06T14:43:00;99325.97;;;14.64;100.00
28079;BME280;15388;42.238;24.684;2022-11-06T14:45:25;99327.94;;;14.62;100.00
28079;BME280;15388;42.238;24.684;2022-11-06T14:47:51;99330.47;;;14.63;100.00
28079;BME280;15388;42.238;24.684;2022-11-06T14:50:27;99330.97;;;14.67;100.00
28079;BME280;15388;42.238;24.684;2022-11-06T14:52:57;99329.13;;;14.59;100.00